Time;durP1;ratioP1;P1;durP2;ratioP2;P2;SDS_P1;SDS_P2;PMS_P1;PMS_P2;Temp;Humidity;BMP_temperature;BMP_pressure;BME280_temperature;BME280_humidity;BME280_pressure;Samples;Min_cycle;Max_cycle;Signal;HPM_P1;HPM_P2
2021/05/26 00:01:16;;;;;;;1999.90;999.90;;;10.90;99.90;;;;;;5055749;28;20200;-82
2021/05/26 00:03:41;;;;;;;1999.90;999.90;;;11.00;99.90;;;;;;5055577;28;20184;-82
2021/05/26 00:06:07;;;;;;;1999.90;999.90;;;11.00;99.90;;;;;;5055594;28;20688;-82
2021/05/26 00:08:34;;;;;;;1999.90;999.90;;;11.00;99.90;;;;;;5073356;28;20203;-82
2021/05/26 00:11:04;;;;;;;1999.90;999.90;;;10.90;99.90;;;;;;5054808;28;20169;-82
2021/05/26 00:13:30;;;;;;;1999.90;999.90;;;10.90;99.90;;;;;;5073689;28;20537;-82
2021/05/26 00:15:56;;;;;;;1999.90;999.90;;;10.80;99.90;;;;;;5055317;28;20198;-82
2021/05/26 00:18:22;;;;;;;1999.90;999.90;;;10.90;99.90;;;;;;5073857;28;20295;-82
2021/05/26 00:20:50;;;;;;;1999.90;999.90;;;11.00;99.90;;;;;;5055512;28;20180;-82
2021/05/26 00:23:16;;;;;;;1999.90;999.90;;;11.00;99.90;;;;;;5073628;28;20593;-82
2021/05/26 00:25:42;;;;;;;1999.90;999.90;;;11.00;99.90;;;;;;5054941;28;20208;-82
2021/05/26 00:28:08;;;;;;;1999.90;999.90;;;10.90;99.90;;;;;;5073516;28;20680;-81
2021/05/26 00:30:36;;;;;;;1999.90;999.90;;;10.80;99.90;;;;;;5074507;28;20181;-82
2021/05/26 00:33:03;;;;;;;1999.90;999.90;;;10.80;99.90;;;;;;5074893;28;20176;-82
2021/05/26 00:35:29;;;;;;;1999.90;999.90;;;10.70;99.90;;;;;;5055172;28;20206;-82
2021/05/26 00:37:54;;;;;;;1999.90;999.90;;;10.70;99.90;;;;;;5055648;28;20192;-81
2021/05/26 00:40:20;;;;;;;1999.90;999.90;;;10.60;99.90;;;;;;5077357;28;20655;-82
2021/05/26 00:42:46;;;;;;;1999.90;999.90;;;10.50;99.90;;;;;;5076667;28;20184;-82
2021/05/26 00:45:14;;;;;;;1999.90;999.90;;;10.40;99.90;;;;;;5058701;28;20223;-82
2021/05/26 00:47:42;;;;;;;1999.90;999.90;;;10.40;99.90;;;;;;5058448;28;20203;-82
2021/05/26 00:50:10;;;;;;;1999.90;999.90;;;10.30;99.90;;;;;;5076584;28;20674;-82
2021/05/26 00:52:37;;;;;;;1999.90;999.90;;;10.30;99.90;;;;;;5076394;28;20675;-82
2021/05/26 00:55:06;;;;;;;1999.90;999.90;;;10.30;99.90;;;;;;5058530;28;20209;-82
2021/05/26 00:57:33;;;;;;;1999.90;999.90;;;10.30;99.90;;;;;;5076896;28;20185;-82
2021/05/26 00:59:58;;;;;;;1999.90;999.90;;;10.30;99.90;;;;;;5058625;28;20184;-82
2021/05/26 01:02:24;;;;;;;1999.90;999.90;;;10.30;99.90;;;;;;5058251;28;20209;-82
2021/05/26 01:04:50;;;;;;;1999.90;999.90;;;10.40;99.90;;;;;;5075751;28;20266;-82
2021/05/26 01:07:16;;;;;;;1999.90;999.90;;;10.50;99.90;;;;;;5075618;28;20257;-82
2021/05/26 01:09:42;;;;;;;1999.90;999.90;;;10.50;99.90;;;;;;5065863;28;20548;-82
2021/05/26 01:12:08;;;;;;;1999.90;999.90;;;10.50;99.90;;;;;;5072789;28;20263;-82
2021/05/26 01:14:34;;;;;;;1999.90;999.90;;;10.50;99.90;;;;;;5076046;28;20207;-82
2021/05/26 01:16:59;;;;;;;1999.90;999.90;;;10.50;99.90;;;;;;5057931;28;20200;-82
2021/05/26 01:19:25;;;;;;;1999.90;999.90;;;10.60;99.90;;;;;;5058173;28;20181;-82
2021/05/26 01:21:52;;;;;;;1999.90;999.90;;;10.50;99.90;;;;;;5075822;28;20184;-82
2021/05/26 01:24:18;;;;;;;1999.90;999.90;;;10.60;99.90;;;;;;5075806;28;20184;-82
2021/05/26 01:26:47;;;;;;;1999.90;999.90;;;10.60;99.90;;;;;;5076436;28;20209;-82
2021/05/26 01:29:14;;;;;;;1999.90;999.90;;;10.70;99.90;;;;;;5075684;28;20207;-82
2021/05/26 01:31:40;;;;;;;1999.90;999.90;;;10.70;99.90;;;;;;5076092;28;20178;-82
2021/05/26 01:34:06;;;;;;;1999.90;999.90;;;10.70;99.90;;;;;;5057742;28;20176;-82
2021/05/26 01:36:34;;;;;;;1999.90;999.90;;;10.70;99.90;;;;;;5053295;28;20324;-82
2021/05/26 01:39:04;;;;;;;1999.90;999.90;;;10.70;99.90;;;;;;5060067;28;20226;-82
2021/05/26 01:41:30;;;;;;;1999.90;999.90;;;10.60;99.90;;;;;;5058677;28;20195;-82
2021/05/26 01:43:56;;;;;;;1999.90;999.90;;;10.50;99.90;;;;;;5055707;28;20173;-81
2021/05/26 01:46:22;;;;;;;1999.90;999.90;;;10.50;99.90;;;;;;5071537;28;20216;-82
2021/05/26 01:48:49;;;;;;;1999.90;999.90;;;10.40;99.90;;;;;;5055312;28;20712;-82
2021/05/26 01:51:15;;;;;;;1999.90;999.90;;;10.40;99.90;;;;;;5054336;28;20211;-82
2021/05/26 01:53:41;;;;;;;1999.90;999.90;;;10.40;99.90;;;;;;5074685;28;20172;-81
2021/05/26 01:56:20;;;;;;;1999.90;999.90;;;10.50;99.90;;;;;;5075583;28;20250;-82
2021/05/26 01:58:52;;;;;;;1999.90;999.90;;;10.60;99.90;;;;;;5075997;28;20177;-82
2021/05/26 02:01:19;;;;;;;1999.90;999.90;;;10.70;99.90;;;;;;5075226;28;20193;-82
2021/05/26 02:03:45;;;;;;;1999.90;999.90;;;10.70;99.90;;;;;;5065448;28;20189;-82
2021/05/26 02:06:12;;;;;;;1999.90;999.90;;;10.70;99.90;;;;;;5068518;28;20700;-82
2021/05/26 02:08:42;;;;;;;1999.90;999.90;;;10.60;99.90;;;;;;5056610;28;20246;-81
2021/05/26 02:13:53;;;;;;;1999.90;999.90;;;10.50;99.90;;;;;;5071284;28;20203;-81
2021/05/26 02:16:18;;;;;;;1999.90;999.90;;;10.60;99.90;;;;;;5073614;28;20200;-82
2021/05/26 02:18:44;;;;;;;1999.90;999.90;;;10.60;99.90;;;;;;5055705;28;20703;-82
2021/05/26 02:21:10;;;;;;;1999.90;999.90;;;10.70;99.90;;;;;;5055603;28;20172;-82
2021/05/26 02:23:36;;;;;;;1999.90;999.90;;;10.60;99.90;;;;;;5055222;28;20232;-82
2021/05/26 02:26:01;;;;;;;1999.90;999.90;;;10.60;99.90;;;;;;5055291;28;20243;-83
2021/05/26 02:28:27;;;;;;;1999.90;999.90;;;10.70;99.90;;;;;;5072648;28;20720;-82
2021/05/26 02:30:53;;;;;;;1999.90;999.90;;;10.60;99.90;;;;;;5054317;28;20173;-81
2021/05/26 02:33:20;;;;;;;1999.90;999.90;;;10.60;99.90;;;;;;5072762;28;20640;-81
2021/05/26 02:35:45;;;;;;;1999.90;999.90;;;10.70;99.90;;;;;;5072234;28;20259;-82
2021/05/26 02:38:11;;;;;;;1999.90;999.90;;;10.70;99.90;;;;;;5054997;28;20641;-82
2021/05/26 02:40:37;;;;;;;1999.90;999.90;;;10.80;99.90;;;;;;5054643;28;20556;-80
2021/05/26 02:43:03;;;;;;;1999.90;999.90;;;10.80;99.90;;;;;;5072325;28;20249;-82
2021/05/26 02:45:29;;;;;;;1999.90;999.90;;;10.80;99.90;;;;;;5055550;28;20208;-82
2021/05/26 02:47:55;;;;;;;1999.90;999.90;;;10.80;99.90;;;;;;5055313;28;20196;-82
2021/05/26 02:50:21;;;;;;;1999.90;999.90;;;10.80;99.90;;;;;;5072604;28;20559;-82
2021/05/26 02:52:47;;;;;;;1999.90;999.90;;;10.90;99.90;;;;;;5054873;28;20229;-82
2021/05/26 02:55:14;;;;;;;1999.90;999.90;;;10.80;99.90;;;;;;5072695;28;20197;-81
2021/05/26 02:57:40;;;;;;;1999.90;999.90;;;10.80;99.90;;;;;;5055853;28;20204;-82
2021/05/26 03:00:08;;;;;;;1999.90;999.90;;;10.80;99.90;;;;;;5074759;28;20211;-82
2021/05/26 03:02:34;;;;;;;1999.90;999.90;;;10.80;99.90;;;;;;5074103;28;20204;-82
2021/05/26 03:04:59;;;;;;;1999.90;999.90;;;10.80;99.90;;;;;;5075099;28;20208;-82
2021/05/26 03:07:25;;;;;;;1999.90;999.90;;;10.90;99.90;;;;;;5074195;28;20193;-82
2021/05/26 03:09:51;;;;;;;1999.90;999.90;;;10.80;99.90;;;;;;5055936;28;20252;-82
2021/05/26 03:12:16;;;;;;;1999.90;999.90;;;10.80;99.90;;;;;;5073323;28;20582;-82
2021/05/26 03:14:42;;;;;;;1999.90;999.90;;;10.80;99.90;;;;;;5055606;28;20180;-82
2021/05/26 03:17:08;;;;;;;1999.90;999.90;;;10.80;99.90;;;;;;5064917;28;20172;-81
2021/05/26 03:19:34;;;;;;;1999.90;999.90;;;10.70;99.90;;;;;;5082690;28;20234;-82
2021/05/26 03:22:00;;;;;;;1999.90;999.90;;;10.70;99.90;;;;;;5075950;28;20259;-82
2021/05/26 03:24:26;;;;;;;1999.90;999.90;;;10.80;99.90;;;;;;5076385;28;20199;-82
2021/05/26 03:26:52;;;;;;;1999.90;999.90;;;10.90;99.90;;;;;;5073665;28;20192;-82
2021/05/26 03:29:17;;;;;;;1999.90;999.90;;;10.80;99.90;;;;;;5069073;28;20219;-82
2021/05/26 03:31:44;;;;;;;1999.90;999.90;;;10.80;99.90;;;;;;5075826;28;20166;-82
2021/05/26 03:34:09;;;;;;;1999.90;999.90;;;10.80;99.90;;;;;;5058043;28;20180;-82
2021/05/26 03:36:38;;;;;;;1999.90;999.90;;;10.80;99.90;;;;;;5075243;28;20200;-82
2021/05/26 03:39:05;;;;;;;1999.90;999.90;;;10.80;99.90;;;;;;5054497;28;20171;-82
2021/05/26 03:41:31;;;;;;;1999.90;999.90;;;10.80;99.90;;;;;;5068744;28;20551;-81
2021/05/26 03:43:56;;;;;;;1999.90;999.90;;;10.80;99.90;;;;;;5074685;28;20172;-82
2021/05/26 03:46:22;;;;;;;1999.90;999.90;;;10.70;99.90;;;;;;5057668;28;20210;-82
2021/05/26 03:48:48;;;;;;;1999.90;999.90;;;10.70;99.90;;;;;;5076065;28;20183;-82
2021/05/26 03:51:13;;;;;;;1999.90;999.90;;;10.70;99.90;;;;;;5057549;28;20187;-82
2021/05/26 03:53:39;;;;;;;1999.90;999.90;;;10.70;99.90;;;;;;5057826;28;20179;-82
2021/05/26 03:56:05;;;;;;;1999.90;999.90;;;10.70;99.90;;;;;;5075839;28;20203;-82
2021/05/26 03:58:30;;;;;;;1999.90;999.90;;;10.70;99.90;;;;;;5058994;28;20179;-82
2021/05/26 04:00:56;;;;;;;1999.90;999.90;;;10.70;99.90;;;;;;5056757;28;20192;-82
2021/05/26 04:03:21;;;;;;;1999.90;999.90;;;10.60;99.90;;;;;;5074354;28;20552;-82
2021/05/26 04:05:47;;;;;;;1999.90;999.90;;;10.60;99.90;;;;;;5071862;28;20201;-82
2021/05/26 04:08:13;;;;;;;1999.90;999.90;;;10.60;99.90;;;;;;5045300;28;20216;-82
2021/05/26 04:10:38;;;;;;;1999.90;999.90;;;10.50;99.90;;;;;;5073801;28;20585;-81
2021/05/26 04:13:04;;;;;;;1999.90;999.90;;;10.60;99.90;;;;;;5075924;28;20230;-82
2021/05/26 04:15:30;;;;;;;1999.90;999.90;;;10.60;99.90;;;;;;5079564;28;20231;-82
2021/05/26 04:18:06;;;;;;;1999.90;999.90;;;10.60;99.90;;;;;;5078594;28;20180;-82
2021/05/26 04:20:31;;;;;;;1999.90;999.90;;;10.60;99.90;;;;;;5078921;28;20227;-82
2021/05/26 04:22:57;;;;;;;1999.90;999.90;;;10.60;99.90;;;;;;5060864;28;20200;-82
2021/05/26 04:25:23;;;;;;;1999.90;999.90;;;10.60;99.90;;;;;;5079553;28;20266;-82
2021/05/26 04:27:49;;;;;;;1999.90;999.90;;;10.60;99.90;;;;;;5078693;28;20212;-82
2021/05/26 04:30:15;;;;;;;1999.90;999.90;;;10.60;99.90;;;;;;5079220;28;20212;-82
2021/05/26 04:32:41;;;;;;;1999.90;999.90;;;10.60;99.90;;;;;;5059970;28;20240;-82
2021/05/26 04:35:07;;;;;;;1999.90;999.90;;;10.70;99.90;;;;;;5078971;28;20755;-82
2021/05/26 04:37:33;;;;;;;1999.90;999.90;;;10.80;99.90;;;;;;5062333;28;20578;-82
2021/05/26 04:39:58;;;;;;;1999.90;999.90;;;10.80;99.90;;;;;;5060510;28;20185;-82
2021/05/26 04:42:24;;;;;;;1999.90;999.90;;;10.90;99.90;;;;;;5060225;28;20191;-82
2021/05/26 04:44:50;;;;;;;1999.90;999.90;;;10.90;99.90;;;;;;5077996;28;20220;-82
2021/05/26 04:47:15;;;;;;;1999.90;999.90;;;10.90;99.90;;;;;;5060413;28;20206;-82
2021/05/26 04:49:41;;;;;;;1999.90;999.90;;;10.90;99.90;;;;;;5059803;28;20183;-82
2021/05/26 04:52:07;;;;;;;1999.90;999.90;;;11.00;99.90;;;;;;5080395;28;20180;-82
2021/05/26 04:54:32;;;;;;;1999.90;999.90;;;11.00;99.90;;;;;;5078961;28;20173;-82
2021/05/26 04:56:58;;;;;;;1999.90;999.90;;;11.00;99.90;;;;;;5080266;28;20282;-82
2021/05/26 04:59:24;;;;;;;1999.90;999.90;;;10.90;99.90;;;;;;5080074;28;20184;-82
2021/05/26 05:01:49;;;;;;;1999.90;999.90;;;10.80;99.90;;;;;;5079119;28;20176;-82
2021/05/26 05:04:15;;;;;;;1999.90;999.90;;;10.80;99.90;;;;;;5080362;28;20181;-82
2021/05/26 05:06:40;;;;;;;1999.90;999.90;;;10.90;99.90;;;;;;5046056;28;20214;-82
2021/05/26 05:09:08;;;;;;;1999.90;999.90;;;10.70;99.90;;;;;;5080261;28;20175;-82
2021/05/26 05:11:34;;;;;;;1999.90;999.90;;;10.80;99.90;;;;;;5080032;28;20560;-82
2021/05/26 05:13:59;;;;;;;1999.90;999.90;;;10.90;99.90;;;;;;5077586;28;20176;-82
2021/05/26 05:16:27;;;;;;;1999.90;999.90;;;10.90;99.90;;;;;;5069404;28;20200;-82
2021/05/26 05:18:53;;;;;;;1999.90;999.90;;;10.90;99.90;;;;;;5061375;28;20172;-82
2021/05/26 05:21:18;;;;;;;1999.90;999.90;;;11.00;99.90;;;;;;5079497;28;20199;-82
2021/05/26 05:23:44;;;;;;;1999.90;999.90;;;10.90;99.90;;;;;;5079385;28;20176;-82
2021/05/26 05:26:10;;;;;;;1999.90;999.90;;;10.90;99.90;;;;;;5080038;28;20196;-82
2021/05/26 05:28:35;;;;;;;1999.90;999.90;;;11.00;99.90;;;;;;5080391;28;20204;-82
2021/05/26 05:31:01;;;;;;;1999.90;999.90;;;10.90;99.90;;;;;;5058226;28;20183;-82
2021/05/26 05:33:27;;;;;;;1999.90;999.90;;;10.90;99.90;;;;;;5059603;28;20887;-82
2021/05/26 05:35:53;;;;;;;1999.90;999.90;;;10.90;99.90;;;;;;5064496;28;20198;-82
2021/05/26 05:38:19;;;;;;;1999.90;999.90;;;10.90;99.90;;;;;;5074604;28;20181;-82
2021/05/26 05:40:44;;;;;;;1999.90;999.90;;;10.90;99.90;;;;;;5050356;28;20699;-81
2021/05/26 05:43:12;;;;;;;1999.90;999.90;;;10.90;99.90;;;;;;5043064;28;20235;-82
2021/05/26 05:45:38;;;;;;;1999.90;999.90;;;10.90;99.90;;;;;;5054689;28;20217;-81
2021/05/26 05:48:05;;;;;;;1999.90;999.90;;;11.00;99.90;;;;;;5059158;28;20288;-82
2021/05/26 05:50:31;;;;;;;1999.90;999.90;;;10.90;99.90;;;;;;5073708;28;20192;-82
2021/05/26 05:52:57;;;;;;;1999.90;999.90;;;10.90;99.90;;;;;;5078299;28;20196;-82
2021/05/26 05:55:22;;;;;;;1999.90;999.90;;;11.00;99.90;;;;;;5075691;28;20258;-82
2021/05/26 05:57:48;;;;;;;1999.90;999.90;;;11.00;99.90;;;;;;5078412;28;20181;-82
2021/05/26 06:00:14;;;;;;;1999.90;999.90;;;11.00;99.90;;;;;;5058090;28;20185;-82
2021/05/26 06:02:41;;;;;;;1999.90;999.90;;;11.10;99.90;;;;;;5067734;28;20178;-81
2021/05/26 06:05:07;;;;;;;1999.90;999.90;;;11.20;99.90;;;;;;5058317;28;20588;-84
2021/05/26 06:07:33;;;;;;;1999.90;999.90;;;11.30;99.90;;;;;;5077966;28;20219;-83
2021/05/26 06:09:59;;;;;;;1999.90;999.90;;;11.30;99.90;;;;;;5059624;28;20174;-83
2021/05/26 06:12:24;;;;;;;1999.90;999.90;;;11.40;99.90;;;;;;5059786;28;20177;-83
2021/05/26 06:14:50;;;;;;;1999.90;999.90;;;11.30;99.90;;;;;;5060557;28;20321;-83
2021/05/26 06:17:16;;;;;;;1999.90;999.90;;;11.30;99.90;;;;;;5078738;28;20219;-83
2021/05/26 06:19:42;;;;;;;1999.90;999.90;;;11.30;99.90;;;;;;5058608;28;20196;-81
2021/05/26 06:22:08;;;;;;;1999.90;999.90;;;11.40;99.90;;;;;;5061899;28;20249;-83
2021/05/26 06:24:33;;;;;;;1999.90;999.90;;;11.50;99.90;;;;;;5061387;28;20196;-83
2021/05/26 06:26:59;;;;;;;1999.90;999.90;;;11.50;99.90;;;;;;5069976;28;20196;-83
2021/05/26 06:29:25;;;;;;;1999.90;999.90;;;11.50;99.90;;;;;;5079591;28;20188;-82
2021/05/26 06:31:51;;;;;;;1999.90;999.90;;;11.50;99.90;;;;;;5078299;28;20540;-82
2021/05/26 06:34:17;;;;;;;1999.90;999.90;;;11.50;99.90;;;;;;5063095;28;20204;-82
2021/05/26 06:36:43;;;;;;;1999.90;999.90;;;11.50;99.90;;;;;;5074696;28;20220;-77
2021/05/26 06:39:08;;;;;;;1999.90;999.90;;;11.50;99.90;;;;;;5073693;28;20563;-77
2021/05/26 06:41:34;;;;;;;1999.90;999.90;;;11.70;99.90;;;;;;5074776;28;20291;-77
2021/05/26 06:44:00;;;;;;;1999.90;999.90;;;11.70;99.90;;;;;;5073644;28;20165;-77
2021/05/26 06:46:25;;;;;;;1999.90;999.90;;;11.90;99.90;;;;;;5068090;28;20219;-77
2021/05/26 06:48:51;;;;;;;1999.90;999.90;;;11.80;99.90;;;;;;5050549;28;20187;-78
2021/05/26 06:51:17;;;;;;;1999.90;999.90;;;11.80;99.90;;;;;;5068833;28;20929;-77
2021/05/26 06:53:42;;;;;;;1999.90;999.90;;;11.80;99.90;;;;;;5057636;28;20245;-78
2021/05/26 06:56:08;;;;;;;1999.90;999.90;;;11.80;99.90;;;;;;5067569;28;20216;-77
2021/05/26 06:58:34;;;;;;;1999.90;999.90;;;11.90;99.90;;;;;;5074549;28;20209;-78
2021/05/26 07:00:59;;;;;;;1999.90;999.90;;;11.90;99.90;;;;;;5057071;28;20173;-78
2021/05/26 07:03:25;;;;;;;1999.90;999.90;;;12.00;99.90;;;;;;5073723;28;20176;-77
2021/05/26 07:05:51;;;;;;;1999.90;999.90;;;12.00;99.90;;;;;;5074534;28;20211;-78
2021/05/26 07:08:16;;;;;;;1999.90;999.90;;;12.00;99.90;;;;;;5074601;28;20599;-78
2021/05/26 07:10:42;;;;;;;1999.90;999.90;;;12.10;99.90;;;;;;5075108;28;20586;-78
2021/05/26 07:13:08;;;;;;;1999.90;999.90;;;12.30;99.90;;;;;;5074822;28;20197;-78
2021/05/26 07:15:34;;;;;;;1999.90;999.90;;;12.40;99.90;;;;;;5072185;28;20716;-78
2021/05/26 07:18:06;;;;;;;1999.90;999.90;;;12.50;99.90;;;;;;5055490;28;20173;-78
2021/05/26 07:20:33;;;;;;;1999.90;999.90;;;12.60;99.90;;;;;;5053813;28;20178;-78
2021/05/26 07:22:59;;;;;;;1999.90;999.90;;;12.60;99.90;;;;;;5067764;28;20180;-78
2021/05/26 07:25:25;;;;;;;1999.90;999.90;;;12.60;99.90;;;;;;5054654;28;20622;-77
2021/05/26 07:27:51;;;;;;;1999.90;999.90;;;12.70;99.90;;;;;;5046432;28;20279;-77
2021/05/26 07:30:18;;;;;;;1999.90;999.90;;;12.80;99.90;;;;;;5071687;28;20531;-78
2021/05/26 07:32:44;;;;;;;1999.90;999.90;;;13.00;99.90;;;;;;5050334;28;20247;-78
2021/05/26 07:35:14;;;;;;;1999.90;999.90;;;13.00;99.90;;;;;;5071420;28;20193;-75
2021/05/26 07:37:48;;;;;;;1999.90;999.90;;;13.10;99.90;;;;;;5068249;28;20180;-74
2021/05/26 07:40:17;;;;;;;1999.90;999.90;;;13.00;99.90;;;;;;5051928;28;20263;-74
2021/05/26 07:42:43;;;;;;;1999.90;999.90;;;13.10;99.90;;;;;;5070651;28;20319;-76
2021/05/26 07:45:09;;;;;;;1999.90;999.90;;;13.10;99.90;;;;;;5071436;28;20287;-76
2021/05/26 07:47:35;;;;;;;1999.90;999.90;;;13.20;99.90;;;;;;5067726;28;20193;-75
2021/05/26 07:50:01;;;;;;;1999.90;999.90;;;13.20;99.90;;;;;;5057925;28;20326;-76
2021/05/26 07:52:28;;;;;;;1999.90;999.90;;;13.20;99.90;;;;;;5076974;28;20180;-75
2021/05/26 07:54:57;;;;;;;1999.90;999.90;;;13.20;99.90;;;;;;5077038;28;20196;-75
2021/05/26 07:57:25;;;;;;;1999.90;999.90;;;13.20;99.90;;;;;;5076910;28;20173;-75
2021/05/26 07:59:51;;;;;;;1999.90;999.90;;;13.20;99.90;;;;;;5077105;28;20248;-75
2021/05/26 08:02:17;;;;;;;1999.90;999.90;;;13.20;99.90;;;;;;5076881;28;20251;-76
2021/05/26 08:04:43;;;;;;;1999.90;999.90;;;13.20;99.90;;;;;;5057350;28;20177;-75
2021/05/26 08:07:10;;;;;;;1999.90;999.90;;;13.20;99.90;;;;;;5058599;28;20192;-75
2021/05/26 08:09:36;;;;;;;1999.90;999.90;;;13.20;99.90;;;;;;5076595;28;20173;-74
2021/05/26 08:12:02;;;;;;;1999.90;999.90;;;13.20;99.90;;;;;;5076606;28;20169;-74
2021/05/26 08:14:29;;;;;;;1999.90;999.90;;;13.20;99.90;;;;;;5058456;28;20172;-75
2021/05/26 08:16:56;;;;;;;1999.90;999.90;;;13.30;99.90;;;;;;5076774;28;20177;-75
2021/05/26 08:19:21;;;;;;;1999.90;999.90;;;13.30;99.90;;;;;;5076387;28;20202;-76
2021/05/26 08:21:47;;;;;;;1999.90;999.90;;;13.20;99.90;;;;;;5076464;28;20228;-76
2021/05/26 08:24:12;;;;;;;1999.90;999.90;;;13.30;99.90;;;;;;5076395;28;20256;-75
2021/05/26 08:26:39;;;;;;;1999.90;999.90;;;13.40;99.90;;;;;;5076118;28;20193;-75
2021/05/26 08:29:06;;;;;;;1999.90;999.90;;;13.30;99.90;;;;;;5058348;28;20166;-75
2021/05/26 08:31:35;;;;;;;1999.90;999.90;;;13.20;99.90;;;;;;5058231;28;20169;-75
2021/05/26 08:34:02;;;;;;;1999.90;999.90;;;13.40;99.90;;;;;;5076537;28;20165;-75
2021/05/26 08:36:27;;;;;;;1999.90;999.90;;;13.50;99.90;;;;;;5058103;28;20192;-76
2021/05/26 08:38:53;;;;;;;1999.90;999.90;;;13.70;99.90;;;;;;5076366;28;20506;-76
2021/05/26 08:41:21;;;;;;;1999.90;999.90;;;13.80;99.90;;;;;;5076388;28;20606;-76
2021/05/26 08:43:53;;;;;;;1999.90;999.90;;;13.90;99.90;;;;;;5075696;28;20234;-74
2021/05/26 08:46:21;;;;;;;1999.90;999.90;;;14.00;99.90;;;;;;5057452;28;20681;-76
2021/05/26 08:48:47;;;;;;;1999.90;999.90;;;14.10;99.90;;;;;;5058152;28;20189;-76
2021/05/26 08:51:15;;;;;;;1999.90;999.90;;;14.20;99.90;;;;;;5075824;28;20546;-76
2021/05/26 08:53:41;;;;;;;1999.90;999.90;;;14.30;99.90;;;;;;5075792;28;20252;-75
2021/05/26 08:56:10;;;;;;;1999.90;999.90;;;14.30;99.90;;;;;;5057709;28;20277;-76
2021/05/26 08:58:40;;;;;;;1999.90;999.90;;;14.40;99.90;;;;;;5075862;28;20665;-76
2021/05/26 09:01:06;;;;;;;1999.90;999.90;;;14.50;99.90;;;;;;5057401;28;20177;-73
2021/05/26 09:03:35;;;;;;;1999.90;999.90;;;14.50;99.90;;;;;;5075648;28;20304;-75
2021/05/26 09:06:05;;;;;;;1999.90;999.90;;;14.50;99.90;;;;;;5075244;28;20577;-75
2021/05/26 09:08:30;;;;;;;1999.90;999.90;;;14.50;99.90;;;;;;5075303;28;20203;-75
2021/05/26 09:10:56;;;;;;;1999.90;999.90;;;14.70;99.90;;;;;;5056647;28;20181;-73
2021/05/26 09:13:36;;;;;;;1999.90;999.90;;;14.80;99.90;;;;;;5057618;28;20166;-73
2021/05/26 09:16:27;;;;;;;1999.90;999.90;;;14.90;99.90;;;;;;5057978;28;20334;-75
2021/05/26 09:19:00;;;;;;;1999.90;999.90;;;14.80;99.90;;;;;;5065062;28;20182;-75
2021/05/26 09:21:43;;;;;;;1999.90;999.90;;;14.70;99.90;;;;;;5056973;28;20169;-76
2021/05/26 09:24:21;;;;;;;1999.90;999.90;;;14.80;99.90;;;;;;5075306;28;20247;-75
2021/05/26 09:26:54;;;;;;;1999.90;999.90;;;15.00;99.90;;;;;;5074997;28;20206;-76
2021/05/26 09:29:37;;;;;;;1999.90;999.90;;;15.00;99.90;;;;;;5054320;28;20170;-76
2021/05/26 09:32:14;;;;;;;1999.90;999.90;;;15.00;99.90;;;;;;5075170;28;20599;-74
2021/05/26 09:34:42;;;;;;;1999.90;999.90;;;15.00;99.90;;;;;;5075217;28;20175;-76
2021/05/26 09:37:13;;;;;;;1999.90;999.90;;;15.00;99.90;;;;;;5057120;28;20177;-75
2021/05/26 09:39:52;;;;;;;1999.90;999.90;;;14.90;99.90;;;;;;5056999;28;20211;-76
2021/05/26 09:42:38;;;;;;;1999.90;999.90;;;15.00;99.90;;;;;;5075009;28;20180;-76
2021/05/26 09:45:09;;;;;;;1999.90;999.90;;;15.10;99.90;;;;;;5074579;28;20287;-75
2021/05/26 09:47:53;;;;;;;1999.90;999.90;;;15.10;99.90;;;;;;5074797;28;20276;-75
2021/05/26 09:50:34;;;;;;;1999.90;999.90;;;15.20;99.90;;;;;;5053933;28;20211;-74
2021/05/26 09:53:11;;;;;;;1999.90;999.90;;;15.30;99.90;;;;;;5074498;28;20165;-75
2021/05/26 09:55:37;;;;;;;1999.90;999.90;;;15.50;99.90;;;;;;5073659;28;20277;-75
2021/05/26 09:58:05;;;;;;;1999.90;999.90;;;15.50;99.90;;;;;;5056368;28;20575;-75
2021/05/26 10:00:32;;;;;;;1999.90;999.90;;;15.30;99.90;;;;;;5056729;28;20579;-77
2021/05/26 10:02:58;;;;;;;1999.90;999.90;;;15.30;99.90;;;;;;5056701;28;20175;-77
2021/05/26 10:05:25;;;;;;;1999.90;999.90;;;15.40;99.90;;;;;;5056750;28;20594;-75
2021/05/26 10:07:56;;;;;;;1999.90;999.90;;;15.40;99.90;;;;;;5056592;28;20601;-76
2021/05/26 10:10:24;;;;;;;1999.90;999.90;;;15.40;99.90;;;;;;5074296;28;20165;-75
2021/05/26 10:12:54;;;;;;;1999.90;999.90;;;15.40;99.90;;;;;;5073570;28;20575;-76
2021/05/26 10:15:21;;;;;;;1999.90;999.90;;;15.50;99.90;;;;;;5074225;28;20203;-75
2021/05/26 10:17:50;;;;;;;1999.90;999.90;;;15.50;99.90;;;;;;5056270;28;20185;-74
2021/05/26 10:20:37;;;;;;;1999.90;999.90;;;15.50;99.90;;;;;;5067383;28;20174;-76
2021/05/26 10:23:07;;;;;;;1999.90;999.90;;;15.50;99.90;;;;;;5055327;28;20653;-75
2021/05/26 10:25:41;;;;;;;1999.90;999.90;;;15.50;99.90;;;;;;5073896;28;20203;-75
2021/05/26 10:28:06;;;;;;;1999.90;999.90;;;15.50;99.90;;;;;;5075249;28;20279;-76
2021/05/26 10:30:47;;;;;;;1999.90;999.90;;;15.50;99.90;;;;;;5065521;28;20262;-75
2021/05/26 10:33:16;;;;;;;1999.90;999.90;;;15.60;99.90;;;;;;5051846;28;20173;-74
2021/05/26 10:35:57;;;;;;;1999.90;999.90;;;15.50;99.90;;;;;;5056683;28;20293;-76
2021/05/26 10:38:23;;;;;;;1999.90;999.90;;;15.60;99.90;;;;;;5056059;28;20227;-75
2021/05/26 10:40:53;;;;;;;1999.90;999.90;;;15.60;99.90;;;;;;5056034;28;20680;-75
2021/05/26 10:43:22;;;;;;;1999.90;999.90;;;15.70;99.90;;;;;;5064833;28;20214;-75
2021/05/26 10:45:56;;;;;;;1999.90;999.90;;;15.60;99.90;;;;;;5055638;28;20205;-76
2021/05/26 10:48:53;;;;;;;1999.90;999.90;;;15.50;99.90;;;;;;5072657;28;20201;-77
2021/05/26 10:51:18;;;;;;;1999.90;999.90;;;15.40;99.90;;;;;;5055995;28;20176;-77
2021/05/26 10:53:45;;;;;;;1999.90;999.90;;;15.50;99.90;;;;;;5054921;28;20169;-76
2021/05/26 10:56:41;;;;;;;1999.90;999.90;;;15.40;99.90;;;;;;5046562;28;20238;-74
2021/05/26 10:59:11;;;;;;;1999.90;999.90;;;15.40;99.90;;;;;;5054215;28;20647;-76
2021/05/26 11:02:02;;;;;;;1999.90;999.90;;;15.40;99.90;;;;;;5068598;28;20161;-77
2021/05/26 11:04:28;;;;;;;1999.90;999.90;;;15.40;99.90;;;;;;5053325;28;20180;-77
2021/05/26 11:07:17;;;;;;;1999.90;999.90;;;15.40;99.90;;;;;;5071467;28;20165;-77
2021/05/26 11:09:58;;;;;;;1999.90;999.90;;;15.10;99.90;;;;;;5054720;28;20629;-77
2021/05/26 11:12:24;;;;;;;1999.90;999.90;;;15.00;99.90;;;;;;5043371;28;20219;-77
2021/05/26 11:14:54;;;;;;;1999.90;999.90;;;15.00;99.90;;;;;;5072864;28;20197;-77
2021/05/26 11:17:30;;;;;;;1999.90;999.90;;;14.90;99.90;;;;;;5072808;28;20336;-77
2021/05/26 11:20:05;;;;;;;1999.90;999.90;;;14.80;99.90;;;;;;5072182;28;20815;-77
2021/05/26 11:22:31;;;;;;;1999.90;999.90;;;14.70;99.90;;;;;;5053444;28;20177;-77
2021/05/26 11:24:57;;;;;;;1999.90;999.90;;;14.60;99.90;;;;;;5072346;28;20548;-77
2021/05/26 11:27:25;;;;;;;1999.90;999.90;;;14.50;99.90;;;;;;5066165;28;20278;-77
2021/05/26 11:29:54;;;;;;;1999.90;999.90;;;14.50;99.90;;;;;;5070374;28;20161;-77
2021/05/26 11:32:21;;;;;;;1999.90;999.90;;;14.50;99.90;;;;;;5071226;28;20169;-77
2021/05/26 11:34:53;;;;;;;1999.90;999.90;;;14.50;99.90;;;;;;5072991;28;20173;-77
2021/05/26 11:37:38;;;;;;;1999.90;999.90;;;14.30;99.90;;;;;;5051832;28;20664;-77
2021/05/26 11:40:24;;;;;;;1999.90;999.90;;;14.40;99.90;;;;;;5073001;28;20196;-77
2021/05/26 11:42:51;;;;;;;1999.90;999.90;;;14.40;99.90;;;;;;5055079;28;20176;-77
2021/05/26 11:45:17;;;;;;;1999.90;999.90;;;14.40;99.90;;;;;;5072633;28;20224;-77
2021/05/26 11:47:46;;;;;;;1999.90;999.90;;;14.20;99.90;;;;;;5072575;28;20200;-77
2021/05/26 11:50:15;;;;;;;1999.90;999.90;;;14.20;99.90;;;;;;5055032;28;20703;-76
2021/05/26 11:52:41;;;;;;;1999.90;999.90;;;14.10;99.90;;;;;;5073064;28;20187;-77
2021/05/26 11:55:08;;;;;;;1999.90;999.90;;;14.00;99.90;;;;;;5048569;28;20193;-77
2021/05/26 11:57:38;;;;;;;1999.90;999.90;;;14.10;99.90;;;;;;5052503;28;20173;-77
2021/05/26 12:00:07;;;;;;;1999.90;999.90;;;14.00;99.90;;;;;;5051563;28;20230;-77
2021/05/26 12:02:33;;;;;;;1999.90;999.90;;;14.10;99.90;;;;;;5051345;28;20199;-77
2021/05/26 12:04:59;;;;;;;1999.90;999.90;;;14.10;99.90;;;;;;5045737;28;20718;-77